sensor_id;sensor_type;location;lat;lon;timestamp;pressure;altitude;pressure_sealevel;temperature;humidity
10462;BME280;5278;42.656;23.374;2023-03-15T00:00:46;93675.88;;;9.18;37.91
10462;BME280;5278;42.656;23.374;2023-03-15T00:03:14;93667.28;;;9.11;37.83
10462;BME280;5278;42.656;23.374;2023-03-15T00:05:41;93654.22;;;8.98;37.73
10462;BME280;5278;42.656;23.374;2023-03-15T00:08:09;93664.22;;;9.01;37.94
10462;BME280;5278;42.656;23.374;2023-03-15T00:10:39;93649.06;;;8.98;37.88
10462;BME280;5278;42.656;23.374;2023-03-15T00:13:08;93642.84;;;8.92;38.12
10462;BME280;5278;42.656;23.374;2023-03-15T00:15:36;93627.38;;;8.78;37.85
10462;BME280;5278;42.656;23.374;2023-03-15T00:18:03;93649.44;;;8.95;38.08
10462;BME280;5278;42.656;23.374;2023-03-15T00:20:30;93649.06;;;8.98;37.66
10462;BME280;5278;42.656;23.374;2023-03-15T00:22:57;93658.25;;;9.00;37.63
10462;BME280;5278;42.656;23.374;2023-03-15T00:25:23;93660.97;;;8.92;37.76
10462;BME280;5278;42.656;23.374;2023-03-15T00:27:50;93662.00;;;8.98;37.48
10462;BME280;5278;42.656;23.374;2023-03-15T00:30:19;93659.06;;;9.01;37.29
10462;BME280;5278;42.656;23.374;2023-03-15T00:32:46;93664.47;;;9.06;37.57
10462;BME280;5278;42.656;23.374;2023-03-15T00:35:13;93646.34;;;9.13;37.50
10462;BME280;5278;42.656;23.374;2023-03-15T00:37:42;93658.16;;;9.15;37.08
10462;BME280;5278;42.656;23.374;2023-03-15T00:40:12;93645.56;;;9.12;37.27
10462;BME280;5278;42.656;23.374;2023-03-15T00:42:39;93635.25;;;9.19;37.24
10462;BME280;5278;42.656;23.374;2023-03-15T00:45:07;93633.69;;;9.24;37.40
10462;BME280;5278;42.656;23.374;2023-03-15T00:47:36;93607.09;;;9.09;36.91
10462;BME280;5278;42.656;23.374;2023-03-15T00:50:03;93636.31;;;9.31;37.14
10462;BME280;5278;42.656;23.374;2023-03-15T00:52:33;93624.94;;;9.32;39.76
10462;BME280;5278;42.656;23.374;2023-03-15T00:55:01;93629.00;;;9.41;41.52
10462;BME280;5278;42.656;23.374;2023-03-15T00:57:29;93620.19;;;9.35;42.48
10462;BME280;5278;42.656;23.374;2023-03-15T00:59:57;93603.56;;;9.23;43.79
10462;BME280;5278;42.656;23.374;2023-03-15T01:02:29;93613.97;;;9.30;43.87
10462;BME280;5278;42.656;23.374;2023-03-15T01:04:58;93597.13;;;9.13;44.39
10462;BME280;5278;42.656;23.374;2023-03-15T01:07:26;93611.34;;;9.23;44.23
10462;BME280;5278;42.656;23.374;2023-03-15T01:09:53;93614.09;;;9.15;44.57
10462;BME280;5278;42.656;23.374;2023-03-15T01:12:19;93601.72;;;9.11;45.25
10462;BME280;5278;42.656;23.374;2023-03-15T01:14:46;93612.09;;;9.17;44.99
10462;BME280;5278;42.656;23.374;2023-03-15T01:17:13;93612.91;;;9.18;45.04
10462;BME280;5278;42.656;23.374;2023-03-15T01:19:40;93620.50;;;9.19;45.36
10462;BME280;5278;42.656;23.374;2023-03-15T01:22:08;93601.38;;;9.27;45.57
10462;BME280;5278;42.656;23.374;2023-03-15T01:24:35;93597.00;;;9.27;45.56
10462;BME280;5278;42.656;23.374;2023-03-15T01:27:02;93591.81;;;9.21;45.84
10462;BME280;5278;42.656;23.374;2023-03-15T01:29:29;93592.53;;;9.08;45.86
10462;BME280;5278;42.656;23.374;2023-03-15T01:31:56;93597.13;;;9.06;46.21
10462;BME280;5278;42.656;23.374;2023-03-15T01:34:23;93597.72;;;9.08;46.12
10462;BME280;5278;42.656;23.374;2023-03-15T01:36:50;93572.53;;;8.95;46.50
10462;BME280;5278;42.656;23.374;2023-03-15T01:39:19;93588.16;;;9.08;46.42
10462;BME280;5278;42.656;23.374;2023-03-15T01:41:47;93568.00;;;9.04;46.04
10462;BME280;5278;42.656;23.374;2023-03-15T01:44:15;93584.41;;;9.18;46.44
10462;BME280;5278;42.656;23.374;2023-03-15T01:46:42;93598.56;;;9.15;46.09
10462;BME280;5278;42.656;23.374;2023-03-15T01:49:10;93537.44;;;8.86;46.07
10462;BME280;5278;42.656;23.374;2023-03-15T01:51:41;93574.03;;;9.18;46.54
10462;BME280;5278;42.656;23.374;2023-03-15T01:54:15;93568.28;;;9.16;46.28
10462;BME280;5278;42.656;23.374;2023-03-15T01:56:48;93565.06;;;9.14;46.61
10462;BME280;5278;42.656;23.374;2023-03-15T01:59:18;93553.09;;;9.13;46.47
10462;BME280;5278;42.656;23.374;2023-03-15T02:01:47;93567.47;;;9.15;46.87
10462;BME280;5278;42.656;23.374;2023-03-15T02:04:17;93564.25;;;9.13;46.94
10462;BME280;5278;42.656;23.374;2023-03-15T02:06:50;93540.88;;;9.00;47.12
10462;BME280;5278;42.656;23.374;2023-03-15T02:09:26;93553.84;;;9.00;47.39
10462;BME280;5278;42.656;23.374;2023-03-15T02:11:58;93534.84;;;8.93;47.29
10462;BME280;5278;42.656;23.374;2023-03-15T02:14:25;93538.34;;;9.06;46.94
10462;BME280;5278;42.656;23.374;2023-03-15T02:16:53;93536.53;;;9.07;47.37
10462;BME280;5278;42.656;23.374;2023-03-15T02:19:31;93525.56;;;9.05;47.45
10462;BME280;5278;42.656;23.374;2023-03-15T02:22:09;93528.75;;;9.07;47.18
10462;BME280;5278;42.656;23.374;2023-03-15T02:24:44;93516.00;;;9.05;47.31
10462;BME280;5278;42.656;23.374;2023-03-15T02:27:22;93524.38;;;9.07;46.35
10462;BME280;5278;42.656;23.374;2023-03-15T02:29:51;93498.38;;;8.81;43.21
10462;BME280;5278;42.656;23.374;2023-03-15T02:32:18;93524.50;;;8.93;42.25
10462;BME280;5278;42.656;23.374;2023-03-15T02:34:45;93528.06;;;8.92;41.27
10462;BME280;5278;42.656;23.374;2023-03-15T02:37:12;93524.66;;;8.85;41.19
10462;BME280;5278;42.656;23.374;2023-03-15T02:39:39;93525.44;;;8.79;41.38
10462;BME280;5278;42.656;23.374;2023-03-15T02:42:07;93530.19;;;8.75;42.05
10462;BME280;5278;42.656;23.374;2023-03-15T02:44:38;93537.31;;;8.67;42.24
10462;BME280;5278;42.656;23.374;2023-03-15T02:47:09;93530.53;;;8.66;42.68
10462;BME280;5278;42.656;23.374;2023-03-15T02:49:40;93485.38;;;8.40;42.99
10462;BME280;5278;42.656;23.374;2023-03-15T02:52:10;93530.09;;;8.62;44.99
10462;BME280;5278;42.656;23.374;2023-03-15T02:54:38;93516.16;;;8.56;45.96
10462;BME280;5278;42.656;23.374;2023-03-15T02:57:07;93510.50;;;8.46;46.05
10462;BME280;5278;42.656;23.374;2023-03-15T02:59:38;93520.47;;;8.49;45.75
10462;BME280;5278;42.656;23.374;2023-03-15T03:02:09;93504.88;;;8.36;45.69
10462;BME280;5278;42.656;23.374;2023-03-15T03:04:36;93509.34;;;8.28;45.61
10462;BME280;5278;42.656;23.374;2023-03-15T03:07:03;93513.69;;;8.27;44.17
10462;BME280;5278;42.656;23.374;2023-03-15T03:09:30;93512.47;;;8.23;43.90
10462;BME280;5278;42.656;23.374;2023-03-15T03:11:58;93507.88;;;8.18;44.05
10462;BME280;5278;42.656;23.374;2023-03-15T03:14:25;93504.47;;;8.11;43.70
10462;BME280;5278;42.656;23.374;2023-03-15T03:16:54;93486.84;;;8.00;44.24
10462;BME280;5278;42.656;23.374;2023-03-15T03:19:20;93459.72;;;7.68;44.54
10462;BME280;5278;42.656;23.374;2023-03-15T03:21:50;93496.31;;;7.87;44.92
10462;BME280;5278;42.656;23.374;2023-03-15T03:24:18;93492.09;;;7.86;44.91
10462;BME280;5278;42.656;23.374;2023-03-15T03:26:46;93501.25;;;7.88;45.11
10462;BME280;5278;42.656;23.374;2023-03-15T03:29:13;93483.38;;;7.87;44.98
10462;BME280;5278;42.656;23.374;2023-03-15T03:31:41;93479.22;;;7.92;45.03
10462;BME280;5278;42.656;23.374;2023-03-15T03:34:10;93482.59;;;7.93;45.13
10462;BME280;5278;42.656;23.374;2023-03-15T03:36:40;93458.50;;;7.86;46.32
10462;BME280;5278;42.656;23.374;2023-03-15T03:39:07;93430.41;;;7.83;45.99
10462;BME280;5278;42.656;23.374;2023-03-15T03:41:34;93473.13;;;8.00;45.99
10462;BME280;5278;42.656;23.374;2023-03-15T03:44:02;93473.75;;;8.02;46.03
10462;BME280;5278;42.656;23.374;2023-03-15T03:46:28;93469.41;;;8.09;45.29
10462;BME280;5278;42.656;23.374;2023-03-15T03:48:55;93469.41;;;8.09;45.56
10462;BME280;5278;42.656;23.374;2023-03-15T03:51:23;93459.06;;;8.09;45.46
10462;BME280;5278;42.656;23.374;2023-03-15T03:53:50;93464.88;;;8.17;45.79
10462;BME280;5278;42.656;23.374;2023-03-15T03:56:17;93469.69;;;8.20;45.71
10462;BME280;5278;42.656;23.374;2023-03-15T03:58:48;93464.69;;;8.19;46.36
10462;BME280;5278;42.656;23.374;2023-03-15T04:01:15;93465.31;;;8.21;48.13
10462;BME280;5278;42.656;23.374;2023-03-15T04:03:42;93463.72;;;8.20;48.50
10462;BME280;5278;42.656;23.374;2023-03-15T04:06:10;93460.28;;;8.13;48.46
10462;BME280;5278;42.656;23.374;2023-03-15T04:08:38;93455.09;;;8.13;47.29
10462;BME280;5278;42.656;23.374;2023-03-15T04:11:07;93456.88;;;8.12;46.62
10462;BME280;5278;42.656;23.374;2023-03-15T04:13:34;93450.91;;;8.12;45.79
10462;BME280;5278;42.656;23.374;2023-03-15T04:16:01;93452.50;;;8.06;46.10
10462;BME280;5278;42.656;23.374;2023-03-15T04:18:31;93442.84;;;7.94;46.86
10462;BME280;5278;42.656;23.374;2023-03-15T04:20:58;93436.59;;;7.82;47.56
10462;BME280;5278;42.656;23.374;2023-03-15T04:23:25;93442.59;;;7.89;47.96
10462;BME280;5278;42.656;23.374;2023-03-15T04:25:55;93441.63;;;7.90;48.51
10462;BME280;5278;42.656;23.374;2023-03-15T04:28:23;93444.16;;;7.83;49.14
10462;BME280;5278;42.656;23.374;2023-03-15T04:30:50;93439.13;;;7.75;49.36
10462;BME280;5278;42.656;23.374;2023-03-15T04:33:23;93440.34;;;7.79;49.69
10462;BME280;5278;42.656;23.374;2023-03-15T04:35:51;93440.72;;;7.76;49.80
10462;BME280;5278;42.656;23.374;2023-03-15T04:38:18;93435.81;;;7.88;51.43
10462;BME280;5278;42.656;23.374;2023-03-15T04:40:51;93436.69;;;7.95;52.06
10462;BME280;5278;42.656;23.374;2023-03-15T04:43:22;93433.91;;;7.96;51.83
10462;BME280;5278;42.656;23.374;2023-03-15T04:45:49;93343.75;;;7.31;51.30
10462;BME280;5278;42.656;23.374;2023-03-15T04:48:16;93441.13;;;8.01;49.98
10462;BME280;5278;42.656;23.374;2023-03-15T04:50:43;93442.94;;;8.07;49.51
10462;BME280;5278;42.656;23.374;2023-03-15T04:53:10;93437.81;;;8.13;49.17
10462;BME280;5278;42.656;23.374;2023-03-15T04:55:37;93445.22;;;8.16;48.99
10462;BME280;5278;42.656;23.374;2023-03-15T04:58:03;93449.81;;;8.21;48.72
10462;BME280;5278;42.656;23.374;2023-03-15T05:00:32;93442.28;;;8.26;48.38
10462;BME280;5278;42.656;23.374;2023-03-15T05:02:59;93443.84;;;8.27;48.88
10462;BME280;5278;42.656;23.374;2023-03-15T05:05:27;93437.91;;;8.27;49.68
10462;BME280;5278;42.656;23.374;2023-03-15T05:07:54;93447.81;;;8.23;50.51
10462;BME280;5278;42.656;23.374;2023-03-15T05:10:21;93449.81;;;8.21;50.80
10462;BME280;5278;42.656;23.374;2023-03-15T05:12:49;93447.44;;;8.26;50.24
10462;BME280;5278;42.656;23.374;2023-03-15T05:15:16;93441.25;;;8.27;51.06
10462;BME280;5278;42.656;23.374;2023-03-15T05:17:44;93448.00;;;8.49;50.07
10462;BME280;5278;42.656;23.374;2023-03-15T05:20:12;93444.94;;;8.74;49.70
10462;BME280;5278;42.656;23.374;2023-03-15T05:22:41;93438.22;;;8.86;48.92
10462;BME280;5278;42.656;23.374;2023-03-15T05:25:09;93438.44;;;8.97;48.91
10462;BME280;5278;42.656;23.374;2023-03-15T05:27:36;93454.81;;;9.04;48.49
10462;BME280;5278;42.656;23.374;2023-03-15T05:30:05;93400.72;;;8.69;48.17
10462;BME280;5278;42.656;23.374;2023-03-15T05:32:32;93440.47;;;8.95;48.40
10462;BME280;5278;42.656;23.374;2023-03-15T05:35:05;93428.84;;;8.85;48.79
10462;BME280;5278;42.656;23.374;2023-03-15T05:37:33;93434.03;;;8.85;49.23
10462;BME280;5278;42.656;23.374;2023-03-15T05:40:00;93428.47;;;8.88;49.00
10462;BME280;5278;42.656;23.374;2023-03-15T05:42:29;93429.06;;;8.90;48.61
10462;BME280;5278;42.656;23.374;2023-03-15T05:44:56;93404.13;;;8.82;48.80
10462;BME280;5278;42.656;23.374;2023-03-15T05:47:23;93448.88;;;9.17;48.42
10462;BME280;5278;42.656;23.374;2023-03-15T05:49:50;93414.03;;;9.26;45.90
10462;BME280;5278;42.656;23.374;2023-03-15T05:52:19;93426.00;;;9.34;45.69
10462;BME280;5278;42.656;23.374;2023-03-15T05:54:46;93418.22;;;9.27;46.57
10462;BME280;5278;42.656;23.374;2023-03-15T05:57:13;93414.41;;;9.23;45.12
10462;BME280;5278;42.656;23.374;2023-03-15T05:59:42;93430.00;;;9.36;46.30
10462;BME280;5278;42.656;23.374;2023-03-15T06:02:09;93433.00;;;9.46;44.67
10462;BME280;5278;42.656;23.374;2023-03-15T06:04:36;93422.06;;;9.51;43.68
10462;BME280;5278;42.656;23.374;2023-03-15T06:07:07;93428.84;;;9.85;43.30
10462;BME280;5278;42.656;23.374;2023-03-15T06:09:38;93428.84;;;10.18;42.39
10462;BME280;5278;42.656;23.374;2023-03-15T06:12:05;93429.81;;;10.43;41.46
10462;BME280;5278;42.656;23.374;2023-03-15T06:14:32;93411.16;;;10.72;40.59
10462;BME280;5278;42.656;23.374;2023-03-15T06:17:00;93411.84;;;10.99;40.12
10462;BME280;5278;42.656;23.374;2023-03-15T06:19:27;93405.00;;;11.43;39.29
10462;BME280;5278;42.656;23.374;2023-03-15T06:21:54;93410.25;;;11.99;38.74
10462;BME280;5278;42.656;23.374;2023-03-15T06:24:21;93409.53;;;12.53;37.84
10462;BME280;5278;42.656;23.374;2023-03-15T06:26:51;93414.56;;;13.21;36.73
10462;BME280;5278;42.656;23.374;2023-03-15T06:29:19;93401.59;;;13.74;35.61
10462;BME280;5278;42.656;23.374;2023-03-15T06:31:46;93385.41;;;13.84;35.58
10462;BME280;5278;42.656;23.374;2023-03-15T06:34:14;93379.16;;;13.85;35.72
10462;BME280;5278;42.656;23.374;2023-03-15T06:36:40;93388.13;;;14.12;35.69
10462;BME280;5278;42.656;23.374;2023-03-15T06:39:08;93398.13;;;14.73;34.85
10462;BME280;5278;42.656;23.374;2023-03-15T06:41:36;93396.19;;;15.20;33.56
10462;BME280;5278;42.656;23.374;2023-03-15T06:44:05;93364.09;;;14.85;34.13
10462;BME280;5278;42.656;23.374;2023-03-15T06:46:32;93367.13;;;15.33;33.47
10462;BME280;5278;42.656;23.374;2023-03-15T06:49:00;93312.97;;;15.34;32.93
10462;BME280;5278;42.656;23.374;2023-03-15T06:51:29;93387.91;;;16.52;32.01
10462;BME280;5278;42.656;23.374;2023-03-15T06:53:56;93386.50;;;17.04;31.07
10462;BME280;5278;42.656;23.374;2023-03-15T06:56:23;93382.09;;;17.80;30.19
10462;BME280;5278;42.656;23.374;2023-03-15T06:58:50;93373.09;;;18.40;29.08
10462;BME280;5278;42.656;23.374;2023-03-15T07:01:18;93365.88;;;18.57;28.62
10462;BME280;5278;42.656;23.374;2023-03-15T07:03:45;93373.47;;;18.17;29.15
10462;BME280;5278;42.656;23.374;2023-03-15T07:06:12;93279.56;;;17.16;29.78
10462;BME280;5278;42.656;23.374;2023-03-15T07:08:39;93370.31;;;18.20;29.49
10462;BME280;5278;42.656;23.374;2023-03-15T07:11:06;93372.59;;;18.85;28.59
10462;BME280;5278;42.656;23.374;2023-03-15T07:13:35;93364.72;;;19.57;27.15
10462;BME280;5278;42.656;23.374;2023-03-15T07:16:02;93365.50;;;19.73;26.85
10462;BME280;5278;42.656;23.374;2023-03-15T07:18:32;93359.22;;;19.99;26.70
10462;BME280;5278;42.656;23.374;2023-03-15T07:21:01;93363.44;;;20.56;25.89
10462;BME280;5278;42.656;23.374;2023-03-15T07:23:29;93372.38;;;21.50;24.81
10462;BME280;5278;42.656;23.374;2023-03-15T07:25:56;93360.16;;;21.59;24.27
10462;BME280;5278;42.656;23.374;2023-03-15T07:28:24;93364.00;;;21.32;24.00
10462;BME280;5278;42.656;23.374;2023-03-15T07:30:52;93360.56;;;21.37;23.77
10462;BME280;5278;42.656;23.374;2023-03-15T07:33:19;93357.22;;;21.06;23.75
10462;BME280;5278;42.656;23.374;2023-03-15T07:35:50;93357.34;;;20.55;24.47
10462;BME280;5278;42.656;23.374;2023-03-15T07:38:18;93363.94;;;20.23;24.87
10462;BME280;5278;42.656;23.374;2023-03-15T07:40:47;93375.47;;;20.87;24.27
10462;BME280;5278;42.656;23.374;2023-03-15T07:43:14;93376.38;;;21.91;23.61
10462;BME280;5278;42.656;23.374;2023-03-15T07:45:41;93324.41;;;22.63;22.99
10462;BME280;5278;42.656;23.374;2023-03-15T07:48:08;93357.00;;;23.96;21.79
10462;BME280;5278;42.656;23.374;2023-03-15T07:50:35;93366.50;;;24.34;20.94
10462;BME280;5278;42.656;23.374;2023-03-15T07:53:04;93359.38;;;25.22;19.97
10462;BME280;5278;42.656;23.374;2023-03-15T07:55:31;93351.22;;;25.82;19.64
10462;BME280;5278;42.656;23.374;2023-03-15T07:57:59;93346.72;;;26.04;19.36
10462;BME280;5278;42.656;23.374;2023-03-15T08:00:26;93361.75;;;25.87;19.12
10462;BME280;5278;42.656;23.374;2023-03-15T08:02:54;93350.47;;;25.54;19.89
10462;BME280;5278;42.656;23.374;2023-03-15T08:05:21;93348.72;;;25.22;20.43
10462;BME280;5278;42.656;23.374;2023-03-15T08:07:49;93341.03;;;24.79;20.94
10462;BME280;5278;42.656;23.374;2023-03-15T08:10:18;93267.63;;;23.91;21.50
10462;BME280;5278;42.656;23.374;2023-03-15T08:12:45;93345.94;;;24.72;21.09
10462;BME280;5278;42.656;23.374;2023-03-15T08:15:13;93338.22;;;24.90;20.67
10462;BME280;5278;42.656;23.374;2023-03-15T08:17:41;93332.06;;;24.29;21.44
10462;BME280;5278;42.656;23.374;2023-03-15T08:20:09;93318.47;;;24.31;21.42
10462;BME280;5278;42.656;23.374;2023-03-15T08:22:39;93317.44;;;25.19;20.80
10462;BME280;5278;42.656;23.374;2023-03-15T08:25:09;93286.84;;;26.02;19.69
10462;BME280;5278;42.656;23.374;2023-03-15T08:27:40;93314.19;;;26.61;19.14
10462;BME280;5278;42.656;23.374;2023-03-15T08:30:08;93304.41;;;26.78;18.81
10462;BME280;5278;42.656;23.374;2023-03-15T08:32:36;93300.75;;;27.62;18.33
10462;BME280;5278;42.656;23.374;2023-03-15T08:35:03;93291.19;;;28.12;17.83
10462;BME280;5278;42.656;23.374;2023-03-15T08:37:30;93316.03;;;27.22;18.08
10462;BME280;5278;42.656;23.374;2023-03-15T08:39:58;93321.66;;;26.81;18.64
10462;BME280;5278;42.656;23.374;2023-03-15T08:42:31;93320.53;;;26.73;18.36
10462;BME280;5278;42.656;23.374;2023-03-15T08:45:00;93319.97;;;26.54;18.87
10462;BME280;5278;42.656;23.374;2023-03-15T08:47:29;93307.28;;;26.90;18.30
10462;BME280;5278;42.656;23.374;2023-03-15T08:49:56;93299.13;;;26.87;18.57
10462;BME280;5278;42.656;23.374;2023-03-15T08:52:23;93309.19;;;26.37;18.64
10462;BME280;5278;42.656;23.374;2023-03-15T08:54:50;93315.28;;;25.70;19.32
10462;BME280;5278;42.656;23.374;2023-03-15T08:57:17;93322.44;;;24.93;20.24
10462;BME280;5278;42.656;23.374;2023-03-15T08:59:44;93317.88;;;24.01;20.84
10462;BME280;5278;42.656;23.374;2023-03-15T09:02:13;93335.88;;;22.82;22.17
10462;BME280;5278;42.656;23.374;2023-03-15T09:04:40;93330.47;;;22.92;21.90
10462;BME280;5278;42.656;23.374;2023-03-15T09:07:07;93323.97;;;23.51;21.14
10462;BME280;5278;42.656;23.374;2023-03-15T09:09:38;93326.69;;;24.16;21.18
10462;BME280;5278;42.656;23.374;2023-03-15T09:12:05;93326.75;;;23.78;21.15
10462;BME280;5278;42.656;23.374;2023-03-15T09:14:32;93330.31;;;23.07;21.74
10462;BME280;5278;42.656;23.374;2023-03-15T09:17:00;93325.56;;;22.52;22.42
10462;BME280;5278;42.656;23.374;2023-03-15T09:19:30;93324.50;;;21.95;22.80
10462;BME280;5278;42.656;23.374;2023-03-15T09:21:58;93338.63;;;21.36;24.05
10462;BME280;5278;42.656;23.374;2023-03-15T09:24:26;93341.13;;;20.92;24.57
10462;BME280;5278;42.656;23.374;2023-03-15T09:26:53;93338.34;;;20.58;25.00
10462;BME280;5278;42.656;23.374;2023-03-15T09:29:21;93317.81;;;20.10;24.98
10462;BME280;5278;42.656;23.374;2023-03-15T09:31:48;93336.81;;;19.71;25.82
10462;BME280;5278;42.656;23.374;2023-03-15T09:34:14;93331.19;;;19.32;26.26
10462;BME280;5278;42.656;23.374;2023-03-15T09:36:43;93315.06;;;19.29;26.28
10462;BME280;5278;42.656;23.374;2023-03-15T09:39:18;93323.53;;;19.36;26.47
10462;BME280;5278;42.656;23.374;2023-03-15T09:41:47;93324.13;;;20.19;25.70
10462;BME280;5278;42.656;23.374;2023-03-15T09:44:29;93315.19;;;21.20;24.47
10462;BME280;5278;42.656;23.374;2023-03-15T09:47:08;93293.13;;;21.39;24.21
10462;BME280;5278;42.656;23.374;2023-03-15T09:49:45;93280.72;;;20.81;24.55
10462;BME280;5278;42.656;23.374;2023-03-15T09:52:26;93304.34;;;20.22;25.31
10462;BME280;5278;42.656;23.374;2023-03-15T09:55:00;93301.19;;;20.14;25.80
10462;BME280;5278;42.656;23.374;2023-03-15T09:57:35;93283.53;;;19.95;25.84
10462;BME280;5278;42.656;23.374;2023-03-15T10:00:09;93277.69;;;19.32;26.34
10462;BME280;5278;42.656;23.374;2023-03-15T10:02:42;93307.13;;;19.09;26.98
10462;BME280;5278;42.656;23.374;2023-03-15T10:05:14;93307.13;;;19.09;27.50
10462;BME280;5278;42.656;23.374;2023-03-15T10:07:45;93306.09;;;19.10;27.23
10462;BME280;5278;42.656;23.374;2023-03-15T10:10:16;93303.63;;;18.78;27.58
10462;BME280;5278;42.656;23.374;2023-03-15T10:12:46;93302.97;;;18.56;27.86
10462;BME280;5278;42.656;23.374;2023-03-15T10:15:29;93300.78;;;18.42;27.91
10462;BME280;5278;42.656;23.374;2023-03-15T10:18:30;93305.38;;;18.20;28.30
10462;BME280;5278;42.656;23.374;2023-03-15T10:21:03;93304.22;;;18.43;28.02
10462;BME280;5278;42.656;23.374;2023-03-15T10:23:38;93299.13;;;18.78;27.39
10462;BME280;5278;42.656;23.374;2023-03-15T10:26:14;93310.03;;;19.02;27.26
10462;BME280;5278;42.656;23.374;2023-03-15T10:28:44;93307.88;;;18.99;27.35
10462;BME280;5278;42.656;23.374;2023-03-15T10:31:14;93297.84;;;18.86;27.49
10462;BME280;5278;42.656;23.374;2023-03-15T10:33:42;93290.47;;;18.88;28.37
10462;BME280;5278;42.656;23.374;2023-03-15T10:36:14;93294.72;;;18.99;28.28
10462;BME280;5278;42.656;23.374;2023-03-15T10:38:46;93297.34;;;18.99;27.52
10462;BME280;5278;42.656;23.374;2023-03-15T10:41:27;93213.06;;;18.12;27.54
10462;BME280;5278;42.656;23.374;2023-03-15T10:44:00;93301.41;;;18.13;28.42
10462;BME280;5278;42.656;23.374;2023-03-15T10:46:27;93302.78;;;17.88;28.49
10462;BME280;5278;42.656;23.374;2023-03-15T10:48:57;93289.56;;;17.46;29.07
10462;BME280;5278;42.656;23.374;2023-03-15T10:51:28;93292.97;;;17.47;29.25
10462;BME280;5278;42.656;23.374;2023-03-15T10:53:59;93297.31;;;17.31;29.29
10462;BME280;5278;42.656;23.374;2023-03-15T10:56:30;93307.03;;;17.09;29.83
10462;BME280;5278;42.656;23.374;2023-03-15T10:58:58;93295.50;;;17.10;30.02
10462;BME280;5278;42.656;23.374;2023-03-15T11:01:27;93301.22;;;17.02;29.97
10462;BME280;5278;42.656;23.374;2023-03-15T11:04:05;93301.09;;;16.92;30.49
10462;BME280;5278;42.656;23.374;2023-03-15T11:06:41;93296.00;;;16.58;30.58
10462;BME280;5278;42.656;23.374;2023-03-15T11:09:13;93281.31;;;16.41;31.20
10462;BME280;5278;42.656;23.374;2023-03-15T11:11:59;93282.53;;;16.33;30.92
10462;BME280;5278;42.656;23.374;2023-03-15T11:14:32;93290.22;;;16.40;31.61
10462;BME280;5278;42.656;23.374;2023-03-15T11:16:59;93282.47;;;16.50;31.12
10462;BME280;5278;42.656;23.374;2023-03-15T11:19:28;93191.97;;;15.99;30.93
10462;BME280;5278;42.656;23.374;2023-03-15T11:21:58;93287.94;;;16.65;30.97
10462;BME280;5278;42.656;23.374;2023-03-15T11:24:29;93288.72;;;16.65;30.93
10462;BME280;5278;42.656;23.374;2023-03-15T11:26:59;93291.06;;;16.84;31.10
10462;BME280;5278;42.656;23.374;2023-03-15T11:29:29;93290.94;;;17.00;30.35
10462;BME280;5278;42.656;23.374;2023-03-15T11:31:58;93265.59;;;16.84;30.32
10462;BME280;5278;42.656;23.374;2023-03-15T11:34:36;93286.25;;;17.02;30.36
10462;BME280;5278;42.656;23.374;2023-03-15T11:37:09;93272.41;;;17.07;30.15
10462;BME280;5278;42.656;23.374;2023-03-15T11:39:43;93267.94;;;17.07;30.31
10462;BME280;5278;42.656;23.374;2023-03-15T11:42:16;93257.09;;;17.26;30.17
10462;BME280;5278;42.656;23.374;2023-03-15T11:44:47;93255.66;;;17.45;29.57
10462;BME280;5278;42.656;23.374;2023-03-15T11:47:22;93279.38;;;17.55;29.61
10462;BME280;5278;42.656;23.374;2023-03-15T11:49:53;93270.97;;;17.53;29.73
10462;BME280;5278;42.656;23.374;2023-03-15T11:52:22;93259.31;;;17.44;29.64
10462;BME280;5278;42.656;23.374;2023-03-15T11:54:54;93261.66;;;17.40;29.77
10462;BME280;5278;42.656;23.374;2023-03-15T11:57:38;93266.69;;;17.42;29.91
10462;BME280;5278;42.656;23.374;2023-03-15T12:03:30;93272.63;;;17.32;30.06
10462;BME280;5278;42.656;23.374;2023-03-15T12:06:02;93270.66;;;17.17;30.55
10462;BME280;5278;42.656;23.374;2023-03-15T12:08:42;93238.81;;;17.09;30.12
10462;BME280;5278;42.656;23.374;2023-03-15T12:11:12;93247.03;;;17.17;30.43
10462;BME280;5278;42.656;23.374;2023-03-15T12:13:50;93245.97;;;17.18;30.43
10462;BME280;5278;42.656;23.374;2023-03-15T12:16:20;93237.53;;;17.11;30.60
10462;BME280;5278;42.656;23.374;2023-03-15T12:18:47;93242.81;;;17.16;30.49
10462;BME280;5278;42.656;23.374;2023-03-15T12:21:32;93234.94;;;17.16;30.40
10462;BME280;5278;42.656;23.374;2023-03-15T12:24:01;93230.16;;;17.08;30.32
10462;BME280;5278;42.656;23.374;2023-03-15T12:26:38;93236.97;;;17.09;30.33
10462;BME280;5278;42.656;23.374;2023-03-15T12:29:12;93245.94;;;16.87;30.77
10462;BME280;5278;42.656;23.374;2023-03-15T12:31:50;93253.03;;;16.64;31.05
10462;BME280;5278;42.656;23.374;2023-03-15T12:34:24;93236.94;;;16.56;31.38
10462;BME280;5278;42.656;23.374;2023-03-15T12:36:55;93235.75;;;16.63;31.49
10462;BME280;5278;42.656;23.374;2023-03-15T12:39:45;93233.03;;;16.36;31.49
10462;BME280;5278;42.656;23.374;2023-03-15T12:45:42;93226.38;;;16.07;32.34
10462;BME280;5278;42.656;23.374;2023-03-15T12:50:56;93227.38;;;15.84;32.66
10462;BME280;5278;42.656;23.374;2023-03-15T12:53:35;93236.22;;;15.62;33.23
10462;BME280;5278;42.656;23.374;2023-03-15T12:56:29;93237.81;;;15.63;33.23
10462;BME280;5278;42.656;23.374;2023-03-15T12:59:04;93227.88;;;15.65;32.98
10462;BME280;5278;42.656;23.374;2023-03-15T13:01:35;93225.34;;;15.70;33.17
10462;BME280;5278;42.656;23.374;2023-03-15T13:04:02;93233.19;;;15.70;33.21
10462;BME280;5278;42.656;23.374;2023-03-15T13:06:37;93234.94;;;15.64;33.26
10462;BME280;5278;42.656;23.374;2023-03-15T13:09:17;93229.88;;;15.58;33.27
10462;BME280;5278;42.656;23.374;2023-03-15T13:11:52;93225.69;;;15.57;33.30
10462;BME280;5278;42.656;23.374;2023-03-15T13:14:32;93219.50;;;15.63;33.43
10462;BME280;5278;42.656;23.374;2023-03-15T13:17:09;93216.59;;;15.64;33.30
10462;BME280;5278;42.656;23.374;2023-03-15T13:19:44;93230.41;;;15.76;32.97
10462;BME280;5278;42.656;23.374;2023-03-15T13:22:20;93216.91;;;15.84;33.36
10462;BME280;5278;42.656;23.374;2023-03-15T13:24:55;93221.66;;;15.87;33.16
10462;BME280;5278;42.656;23.374;2023-03-15T13:27:43;93230.81;;;16.07;33.31